sensor_id;sensor_type;location;lat;lon;timestamp;temperature;humidity
4518;DHT22;2271;49.464;11.070;2023-08-21T00:01:26;26.90;99.90
4518;DHT22;2271;49.464;11.070;2023-08-21T00:03:51;26.90;99.90
4518;DHT22;2271;49.464;11.070;2023-08-21T00:06:17;26.90;99.90
4518;DHT22;2271;49.464;11.070;2023-08-21T00:08:42;26.90;99.90
4518;DHT22;2271;49.464;11.070;2023-08-21T00:11:08;26.80;99.90
4518;DHT22;2271;49.464;11.070;2023-08-21T00:13:33;26.80;99.90
4518;DHT22;2271;49.464;11.070;2023-08-21T00:16:00;26.70;99.90
4518;DHT22;2271;49.464;11.070;2023-08-21T00:18:25;26.70;99.90
4518;DHT22;2271;49.464;11.070;2023-08-21T00:20:51;26.70;99.90
4518;DHT22;2271;49.464;11.070;2023-08-21T00:23:17;26.70;99.90
4518;DHT22;2271;49.464;11.070;2023-08-21T00:25:46;26.70;99.90
4518;DHT22;2271;49.464;11.070;2023-08-21T00:28:12;26.70;99.90
4518;DHT22;2271;49.464;11.070;2023-08-21T00:30:37;26.70;99.90
4518;DHT22;2271;49.464;11.070;2023-08-21T00:33:03;26.70;99.90
4518;DHT22;2271;49.464;11.070;2023-08-21T00:35:29;26.70;99.90
4518;DHT22;2271;49.464;11.070;2023-08-21T00:37:54;26.60;99.90
4518;DHT22;2271;49.464;11.070;2023-08-21T00:40:20;26.60;99.90
4518;DHT22;2271;49.464;11.070;2023-08-21T00:42:45;26.60;99.90
4518;DHT22;2271;49.464;11.070;2023-08-21T00:45:11;26.60;99.90
4518;DHT22;2271;49.464;11.070;2023-08-21T00:47:37;26.60;99.90
4518;DHT22;2271;49.464;11.070;2023-08-21T00:50:03;26.60;99.90
4518;DHT22;2271;49.464;11.070;2023-08-21T00:52:31;26.60;99.90
4518;DHT22;2271;49.464;11.070;2023-08-21T00:54:57;26.60;99.90
4518;DHT22;2271;49.464;11.070;2023-08-21T00:57:23;26.50;99.90
4518;DHT22;2271;49.464;11.070;2023-08-21T00:59:49;26.60;99.90
4518;DHT22;2271;49.464;11.070;2023-08-21T01:02:15;26.50;99.90
4518;DHT22;2271;49.464;11.070;2023-08-21T01:04:42;26.60;99.90
4518;DHT22;2271;49.464;11.070;2023-08-21T01:07:07;26.50;99.90
4518;DHT22;2271;49.464;11.070;2023-08-21T01:09:50;26.50;99.90
4518;DHT22;2271;49.464;11.070;2023-08-21T01:12:37;26.60;99.90
4518;DHT22;2271;49.464;11.070;2023-08-21T01:15:07;26.60;99.90
4518;DHT22;2271;49.464;11.070;2023-08-21T01:17:39;26.60;99.90
4518;DHT22;2271;49.464;11.070;2023-08-21T01:20:07;26.60;99.90
4518;DHT22;2271;49.464;11.070;2023-08-21T01:22:37;26.50;99.90
4518;DHT22;2271;49.464;11.070;2023-08-21T01:25:04;26.60;99.90
4518;DHT22;2271;49.464;11.070;2023-08-21T01:27:31;26.60;99.90
4518;DHT22;2271;49.464;11.070;2023-08-21T01:29:57;26.60;99.90
4518;DHT22;2271;49.464;11.070;2023-08-21T01:34:58;26.40;99.90
4518;DHT22;2271;49.464;11.070;2023-08-21T01:37:24;26.20;99.90
4518;DHT22;2271;49.464;11.070;2023-08-21T01:39:51;26.00;99.90
4518;DHT22;2271;49.464;11.070;2023-08-21T01:42:17;25.90;99.90
4518;DHT22;2271;49.464;11.070;2023-08-21T01:44:42;25.90;99.90
4518;DHT22;2271;49.464;11.070;2023-08-21T01:47:11;25.90;99.90
4518;DHT22;2271;49.464;11.070;2023-08-21T01:49:37;25.70;99.90
4518;DHT22;2271;49.464;11.070;2023-08-21T01:52:02;25.60;99.90
4518;DHT22;2271;49.464;11.070;2023-08-21T01:54:28;25.40;99.90
4518;DHT22;2271;49.464;11.070;2023-08-21T01:56:54;25.40;99.90
4518;DHT22;2271;49.464;11.070;2023-08-21T01:59:19;25.50;99.90
4518;DHT22;2271;49.464;11.070;2023-08-21T02:01:45;25.50;99.90
4518;DHT22;2271;49.464;11.070;2023-08-21T02:04:11;25.40;99.90
4518;DHT22;2271;49.464;11.070;2023-08-21T02:06:37;25.50;99.90
4518;DHT22;2271;49.464;11.070;2023-08-21T02:09:02;25.60;99.90
4518;DHT22;2271;49.464;11.070;2023-08-21T02:11:28;25.60;99.90
4518;DHT22;2271;49.464;11.070;2023-08-21T02:13:54;25.50;99.90
4518;DHT22;2271;49.464;11.070;2023-08-21T02:16:19;25.50;99.90
4518;DHT22;2271;49.464;11.070;2023-08-21T02:18:47;25.40;99.90
4518;DHT22;2271;49.464;11.070;2023-08-21T02:21:12;25.30;99.90
4518;DHT22;2271;49.464;11.070;2023-08-21T02:23:38;25.20;99.90
4518;DHT22;2271;49.464;11.070;2023-08-21T02:26:04;25.30;99.90
4518;DHT22;2271;49.464;11.070;2023-08-21T02:28:30;25.30;99.90
4518;DHT22;2271;49.464;11.070;2023-08-21T02:30:55;25.40;99.90
4518;DHT22;2271;49.464;11.070;2023-08-21T02:33:21;25.40;99.90
4518;DHT22;2271;49.464;11.070;2023-08-21T02:35:46;25.40;99.90
4518;DHT22;2271;49.464;11.070;2023-08-21T02:38:12;25.20;99.90
4518;DHT22;2271;49.464;11.070;2023-08-21T02:40:37;25.20;99.90
4518;DHT22;2271;49.464;11.070;2023-08-21T02:43:03;25.30;99.90
4518;DHT22;2271;49.464;11.070;2023-08-21T02:45:29;25.40;99.90
4518;DHT22;2271;49.464;11.070;2023-08-21T02:47:55;25.40;99.90
4518;DHT22;2271;49.464;11.070;2023-08-21T02:50:20;25.40;99.90
4518;DHT22;2271;49.464;11.070;2023-08-21T02:52:46;25.30;99.90
4518;DHT22;2271;49.464;11.070;2023-08-21T02:55:12;25.30;99.90
4518;DHT22;2271;49.464;11.070;2023-08-21T02:57:37;25.30;99.90
4518;DHT22;2271;49.464;11.070;2023-08-21T03:00:03;25.20;99.90
4518;DHT22;2271;49.464;11.070;2023-08-21T03:02:29;25.30;99.90
4518;DHT22;2271;49.464;11.070;2023-08-21T03:04:55;25.20;99.90
4518;DHT22;2271;49.464;11.070;2023-08-21T03:07:20;25.30;99.90
4518;DHT22;2271;49.464;11.070;2023-08-21T03:09:47;25.30;99.90
4518;DHT22;2271;49.464;11.070;2023-08-21T03:12:12;25.30;99.90
4518;DHT22;2271;49.464;11.070;2023-08-21T03:14:38;25.30;99.90
4518;DHT22;2271;49.464;11.070;2023-08-21T03:17:04;25.30;99.90
4518;DHT22;2271;49.464;11.070;2023-08-21T03:19:29;25.30;99.90
4518;DHT22;2271;49.464;11.070;2023-08-21T03:21:55;25.30;99.90
4518;DHT22;2271;49.464;11.070;2023-08-21T03:24:21;25.30;99.90
4518;DHT22;2271;49.464;11.070;2023-08-21T03:26:47;25.30;99.90
4518;DHT22;2271;49.464;11.070;2023-08-21T03:29:13;25.40;99.90
4518;DHT22;2271;49.464;11.070;2023-08-21T03:31:38;25.50;99.90
4518;DHT22;2271;49.464;11.070;2023-08-21T03:34:04;25.60;99.90
4518;DHT22;2271;49.464;11.070;2023-08-21T03:36:30;25.80;99.90
4518;DHT22;2271;49.464;11.070;2023-08-21T03:38:59;26.00;99.90
4518;DHT22;2271;49.464;11.070;2023-08-21T03:41:25;26.00;99.90
4518;DHT22;2271;49.464;11.070;2023-08-21T03:43:51;26.10;99.90
4518;DHT22;2271;49.464;11.070;2023-08-21T03:46:16;26.20;99.90
4518;DHT22;2271;49.464;11.070;2023-08-21T03:48:42;26.10;99.90
4518;DHT22;2271;49.464;11.070;2023-08-21T03:51:07;26.10;99.90
4518;DHT22;2271;49.464;11.070;2023-08-21T03:53:33;26.20;99.90
4518;DHT22;2271;49.464;11.070;2023-08-21T03:55:59;26.10;99.90
4518;DHT22;2271;49.464;11.070;2023-08-21T03:58:24;26.10;99.90
4518;DHT22;2271;49.464;11.070;2023-08-21T04:00:55;26.00;99.90
4518;DHT22;2271;49.464;11.070;2023-08-21T04:03:21;26.00;99.90
4518;DHT22;2271;49.464;11.070;2023-08-21T04:05:47;26.00;99.90
4518;DHT22;2271;49.464;11.070;2023-08-21T04:08:13;26.00;99.90
4518;DHT22;2271;49.464;11.070;2023-08-21T04:10:39;25.90;99.90
4518;DHT22;2271;49.464;11.070;2023-08-21T04:13:05;25.90;99.90
4518;DHT22;2271;49.464;11.070;2023-08-21T04:15:31;25.70;99.90
4518;DHT22;2271;49.464;11.070;2023-08-21T04:17:57;25.50;99.90
4518;DHT22;2271;49.464;11.070;2023-08-21T04:20:22;25.30;99.90
4518;DHT22;2271;49.464;11.070;2023-08-21T04:22:48;25.20;99.90
4518;DHT22;2271;49.464;11.070;2023-08-21T04:25:14;25.10;99.90
4518;DHT22;2271;49.464;11.070;2023-08-21T04:27:42;25.10;99.90
4518;DHT22;2271;49.464;11.070;2023-08-21T04:30:08;25.00;99.90
4518;DHT22;2271;49.464;11.070;2023-08-21T04:32:34;24.90;99.90
4518;DHT22;2271;49.464;11.070;2023-08-21T04:35:00;24.90;99.90
4518;DHT22;2271;49.464;11.070;2023-08-21T04:37:25;24.80;99.90
4518;DHT22;2271;49.464;11.070;2023-08-21T04:39:52;24.90;99.90
4518;DHT22;2271;49.464;11.070;2023-08-21T04:42:18;24.80;99.90
4518;DHT22;2271;49.464;11.070;2023-08-21T04:44:43;24.80;99.90
4518;DHT22;2271;49.464;11.070;2023-08-21T04:47:22;24.80;99.90
4518;DHT22;2271;49.464;11.070;2023-08-21T04:49:51;24.80;99.90
4518;DHT22;2271;49.464;11.070;2023-08-21T04:52:17;24.80;99.90
4518;DHT22;2271;49.464;11.070;2023-08-21T04:54:42;24.80;99.90
4518;DHT22;2271;49.464;11.070;2023-08-21T04:57:08;24.80;99.90
4518;DHT22;2271;49.464;11.070;2023-08-21T04:59:35;24.80;99.90
4518;DHT22;2271;49.464;11.070;2023-08-21T05:02:01;24.90;99.90
4518;DHT22;2271;49.464;11.070;2023-08-21T05:04:27;24.90;99.90
4518;DHT22;2271;49.464;11.070;2023-08-21T05:06:52;25.00;99.90
4518;DHT22;2271;49.464;11.070;2023-08-21T05:09:18;25.00;99.90
4518;DHT22;2271;49.464;11.070;2023-08-21T05:11:43;25.00;99.90
4518;DHT22;2271;49.464;11.070;2023-08-21T05:14:09;25.00;99.90
4518;DHT22;2271;49.464;11.070;2023-08-21T05:16:35;25.10;99.90
4518;DHT22;2271;49.464;11.070;2023-08-21T05:19:00;25.10;99.90
4518;DHT22;2271;49.464;11.070;2023-08-21T05:21:26;25.10;99.90
4518;DHT22;2271;49.464;11.070;2023-08-21T05:23:52;25.20;99.90
4518;DHT22;2271;49.464;11.070;2023-08-21T05:26:18;25.30;99.90
4518;DHT22;2271;49.464;11.070;2023-08-21T05:28:43;25.30;99.90
4518;DHT22;2271;49.464;11.070;2023-08-21T05:31:09;25.30;99.90
4518;DHT22;2271;49.464;11.070;2023-08-21T05:33:35;25.40;99.90
4518;DHT22;2271;49.464;11.070;2023-08-21T05:36:00;25.40;99.90
4518;DHT22;2271;49.464;11.070;2023-08-21T05:38:26;25.40;99.90
4518;DHT22;2271;49.464;11.070;2023-08-21T05:40:52;25.50;99.90
4518;DHT22;2271;49.464;11.070;2023-08-21T05:43:17;25.60;99.90
4518;DHT22;2271;49.464;11.070;2023-08-21T05:45:43;25.80;99.90
4518;DHT22;2271;49.464;11.070;2023-08-21T05:48:08;26.00;99.90
4518;DHT22;2271;49.464;11.070;2023-08-21T05:50:35;26.20;99.90
4518;DHT22;2271;49.464;11.070;2023-08-21T05:53:05;26.30;99.90
4518;DHT22;2271;49.464;11.070;2023-08-21T05:55:31;26.40;99.90
4518;DHT22;2271;49.464;11.070;2023-08-21T05:57:57;26.50;99.90
4518;DHT22;2271;49.464;11.070;2023-08-21T06:00:22;26.50;99.90
4518;DHT22;2271;49.464;11.070;2023-08-21T06:02:48;26.60;99.90
4518;DHT22;2271;49.464;11.070;2023-08-21T06:05:13;26.50;99.90
4518;DHT22;2271;49.464;11.070;2023-08-21T06:07:39;26.70;99.90
4518;DHT22;2271;49.464;11.070;2023-08-21T06:10:09;27.00;99.90
4518;DHT22;2271;49.464;11.070;2023-08-21T06:12:41;27.10;99.90
4518;DHT22;2271;49.464;11.070;2023-08-21T06:15:07;27.10;99.90
4518;DHT22;2271;49.464;11.070;2023-08-21T06:17:36;27.10;99.90
4518;DHT22;2271;49.464;11.070;2023-08-21T06:20:03;26.90;99.90
4518;DHT22;2271;49.464;11.070;2023-08-21T06:22:31;26.80;99.90
4518;DHT22;2271;49.464;11.070;2023-08-21T06:24:57;26.70;99.90
4518;DHT22;2271;49.464;11.070;2023-08-21T06:27:23;26.60;99.90
4518;DHT22;2271;49.464;11.070;2023-08-21T06:29:48;26.50;99.90
4518;DHT22;2271;49.464;11.070;2023-08-21T06:32:14;26.50;99.90
4518;DHT22;2271;49.464;11.070;2023-08-21T06:34:40;26.50;99.90
4518;DHT22;2271;49.464;11.070;2023-08-21T06:37:05;26.40;99.90
4518;DHT22;2271;49.464;11.070;2023-08-21T06:39:31;26.50;99.90
4518;DHT22;2271;49.464;11.070;2023-08-21T06:41:57;26.80;99.90
4518;DHT22;2271;49.464;11.070;2023-08-21T06:44:23;27.10;99.90
4518;DHT22;2271;49.464;11.070;2023-08-21T06:46:48;27.30;99.90
4518;DHT22;2271;49.464;11.070;2023-08-21T06:49:14;27.70;99.90
4518;DHT22;2271;49.464;11.070;2023-08-21T06:51:39;27.90;99.90
4518;DHT22;2271;49.464;11.070;2023-08-21T06:54:05;28.20;99.90
4518;DHT22;2271;49.464;11.070;2023-08-21T06:56:31;28.60;99.90
4518;DHT22;2271;49.464;11.070;2023-08-21T06:58:57;28.70;99.90
4518;DHT22;2271;49.464;11.070;2023-08-21T07:01:22;28.10;99.90
4518;DHT22;2271;49.464;11.070;2023-08-21T07:03:48;28.10;99.90
4518;DHT22;2271;49.464;11.070;2023-08-21T07:06:14;28.10;99.90
4518;DHT22;2271;49.464;11.070;2023-08-21T07:08:39;28.10;99.90
4518;DHT22;2271;49.464;11.070;2023-08-21T07:11:06;28.30;99.90
4518;DHT22;2271;49.464;11.070;2023-08-21T07:13:34;28.50;99.90
4518;DHT22;2271;49.464;11.070;2023-08-21T07:16:00;28.60;99.90
4518;DHT22;2271;49.464;11.070;2023-08-21T07:18:29;28.90;99.90
4518;DHT22;2271;49.464;11.070;2023-08-21T07:20:54;29.20;99.90
4518;DHT22;2271;49.464;11.070;2023-08-21T07:23:20;29.30;99.90
4518;DHT22;2271;49.464;11.070;2023-08-21T07:25:46;29.60;99.90
4518;DHT22;2271;49.464;11.070;2023-08-21T07:28:11;29.60;99.90
4518;DHT22;2271;49.464;11.070;2023-08-21T07:30:38;29.90;99.90
4518;DHT22;2271;49.464;11.070;2023-08-21T07:33:04;30.10;99.90
4518;DHT22;2271;49.464;11.070;2023-08-21T07:35:31;30.30;99.90
4518;DHT22;2271;49.464;11.070;2023-08-21T07:37:56;30.40;99.90
4518;DHT22;2271;49.464;11.070;2023-08-21T07:40:22;30.40;99.90
4518;DHT22;2271;49.464;11.070;2023-08-21T07:42:48;30.60;99.90
4518;DHT22;2271;49.464;11.070;2023-08-21T07:45:13;30.70;99.90
4518;DHT22;2271;49.464;11.070;2023-08-21T07:47:39;30.90;99.90
4518;DHT22;2271;49.464;11.070;2023-08-21T07:50:09;31.00;99.90
4518;DHT22;2271;49.464;11.070;2023-08-21T07:52:36;31.00;99.90
4518;DHT22;2271;49.464;11.070;2023-08-21T07:55:02;30.90;99.90
4518;DHT22;2271;49.464;11.070;2023-08-21T07:57:29;30.80;99.90
4518;DHT22;2271;49.464;11.070;2023-08-21T07:59:55;30.70;99.90
4518;DHT22;2271;49.464;11.070;2023-08-21T08:02:21;30.40;99.90
4518;DHT22;2271;49.464;11.070;2023-08-21T08:04:46;30.10;99.90
4518;DHT22;2271;49.464;11.070;2023-08-21T08:07:12;30.10;99.90
4518;DHT22;2271;49.464;11.070;2023-08-21T08:09:38;30.40;99.90
4518;DHT22;2271;49.464;11.070;2023-08-21T08:12:05;30.70;99.90
4518;DHT22;2271;49.464;11.070;2023-08-21T08:14:31;31.00;99.90
4518;DHT22;2271;49.464;11.070;2023-08-21T08:16:56;31.20;99.90
4518;DHT22;2271;49.464;11.070;2023-08-21T08:19:22;31.30;99.90
4518;DHT22;2271;49.464;11.070;2023-08-21T08:21:48;31.50;99.90
4518;DHT22;2271;49.464;11.070;2023-08-21T08:24:13;31.50;99.90
4518;DHT22;2271;49.464;11.070;2023-08-21T08:26:39;31.60;99.90
4518;DHT22;2271;49.464;11.070;2023-08-21T08:29:06;31.80;99.90
4518;DHT22;2271;49.464;11.070;2023-08-21T08:31:31;31.70;99.90
4518;DHT22;2271;49.464;11.070;2023-08-21T08:33:57;31.70;99.90
4518;DHT22;2271;49.464;11.070;2023-08-21T08:36:23;31.70;99.90
4518;DHT22;2271;49.464;11.070;2023-08-21T08:38:49;31.90;99.90
4518;DHT22;2271;49.464;11.070;2023-08-21T08:41:25;32.00;99.90
4518;DHT22;2271;49.464;11.070;2023-08-21T08:43:51;32.10;99.90
4518;DHT22;2271;49.464;11.070;2023-08-21T08:46:19;32.20;99.90
4518;DHT22;2271;49.464;11.070;2023-08-21T08:48:45;32.20;99.90
4518;DHT22;2271;49.464;11.070;2023-08-21T08:51:12;31.30;99.90
4518;DHT22;2271;49.464;11.070;2023-08-21T08:53:38;31.30;99.90
4518;DHT22;2271;49.464;11.070;2023-08-21T08:56:03;31.60;99.90
4518;DHT22;2271;49.464;11.070;2023-08-21T08:58:29;31.90;99.90
4518;DHT22;2271;49.464;11.070;2023-08-21T09:00:55;32.10;99.90
4518;DHT22;2271;49.464;11.070;2023-08-21T09:03:20;32.30;99.90
4518;DHT22;2271;49.464;11.070;2023-08-21T09:05:47;32.40;99.90
4518;DHT22;2271;49.464;11.070;2023-08-21T09:08:14;32.50;99.90
4518;DHT22;2271;49.464;11.070;2023-08-21T09:10:41;32.60;99.90
4518;DHT22;2271;49.464;11.070;2023-08-21T09:13:25;32.70;99.90
4518;DHT22;2271;49.464;11.070;2023-08-21T09:15:55;32.60;99.90
4518;DHT22;2271;49.464;11.070;2023-08-21T09:18:23;32.70;99.90
4518;DHT22;2271;49.464;11.070;2023-08-21T09:20:49;32.80;99.90
4518;DHT22;2271;49.464;11.070;2023-08-21T09:23:16;32.90;99.90
4518;DHT22;2271;49.464;11.070;2023-08-21T09:25:44;32.40;99.90
4518;DHT22;2271;49.464;11.070;2023-08-21T09:28:12;32.00;99.90
4518;DHT22;2271;49.464;11.070;2023-08-21T09:33:13;32.40;99.90
4518;DHT22;2271;49.464;11.070;2023-08-21T09:35:43;32.50;99.90
4518;DHT22;2271;49.464;11.070;2023-08-21T09:38:09;32.10;99.90
4518;DHT22;2271;49.464;11.070;2023-08-21T09:40:42;31.50;99.90
4518;DHT22;2271;49.464;11.070;2023-08-21T09:43:11;31.40;99.90
4518;DHT22;2271;49.464;11.070;2023-08-21T09:45:37;31.80;99.90
4518;DHT22;2271;49.464;11.070;2023-08-21T09:48:03;32.20;99.90
4518;DHT22;2271;49.464;11.070;2023-08-21T09:50:30;32.50;99.90
4518;DHT22;2271;49.464;11.070;2023-08-21T09:52:56;32.60;99.90
4518;DHT22;2271;49.464;11.070;2023-08-21T09:55:24;32.80;99.90
4518;DHT22;2271;49.464;11.070;2023-08-21T09:57:52;32.90;99.90
4518;DHT22;2271;49.464;11.070;2023-08-21T10:00:30;32.70;99.90
4518;DHT22;2271;49.464;11.070;2023-08-21T10:03:00;32.40;99.90
4518;DHT22;2271;49.464;11.070;2023-08-21T10:05:28;32.60;99.90
4518;DHT22;2271;49.464;11.070;2023-08-21T10:07:55;32.90;99.90
4518;DHT22;2271;49.464;11.070;2023-08-21T10:10:21;33.00;99.90
4518;DHT22;2271;49.464;11.070;2023-08-21T10:12:50;33.20;99.90
4518;DHT22;2271;49.464;11.070;2023-08-21T10:15:16;32.80;99.90
4518;DHT22;2271;49.464;11.070;2023-08-21T10:17:43;32.90;99.90
4518;DHT22;2271;49.464;11.070;2023-08-21T10:20:09;33.00;99.90
4518;DHT22;2271;49.464;11.070;2023-08-21T10:22:43;33.10;99.90
4518;DHT22;2271;49.464;11.070;2023-08-21T10:25:19;33.00;99.90
4518;DHT22;2271;49.464;11.070;2023-08-21T10:27:56;32.40;99.90
4518;DHT22;2271;49.464;11.070;2023-08-21T10:30:24;32.40;99.90
4518;DHT22;2271;49.464;11.070;2023-08-21T10:32:53;32.70;99.90
4518;DHT22;2271;49.464;11.070;2023-08-21T10:35:37;32.90;99.90
4518;DHT22;2271;49.464;11.070;2023-08-21T10:38:15;33.10;99.90
4518;DHT22;2271;49.464;11.070;2023-08-21T10:41:08;33.20;99.90
4518;DHT22;2271;49.464;11.070;2023-08-21T10:43:42;33.20;99.90
4518;DHT22;2271;49.464;11.070;2023-08-21T10:46:11;33.20;99.90
4518;DHT22;2271;49.464;11.070;2023-08-21T10:48:37;33.40;99.90
4518;DHT22;2271;49.464;11.070;2023-08-21T10:51:05;33.60;99.90
4518;DHT22;2271;49.464;11.070;2023-08-21T10:53:32;33.70;99.90
4518;DHT22;2271;49.464;11.070;2023-08-21T10:56:03;33.70;99.90
4518;DHT22;2271;49.464;11.070;2023-08-21T10:58:43;33.60;99.90
4518;DHT22;2271;49.464;11.070;2023-08-21T11:01:09;33.50;99.90
4518;DHT22;2271;49.464;11.070;2023-08-21T11:03:39;33.40;99.90
4518;DHT22;2271;49.464;11.070;2023-08-21T11:06:07;33.40;99.90
4518;DHT22;2271;49.464;11.070;2023-08-21T11:08:33;33.10;99.90
4518;DHT22;2271;49.464;11.070;2023-08-21T11:11:01;33.20;99.90
4518;DHT22;2271;49.464;11.070;2023-08-21T11:13:27;33.40;99.90
4518;DHT22;2271;49.464;11.070;2023-08-21T11:18:33;33.60;99.90
4518;DHT22;2271;49.464;11.070;2023-08-21T11:23:34;33.70;99.90
4518;DHT22;2271;49.464;11.070;2023-08-21T11:26:02;33.70;99.90
4518;DHT22;2271;49.464;11.070;2023-08-21T11:28:29;33.70;99.90
4518;DHT22;2271;49.464;11.070;2023-08-21T11:30:56;33.70;99.90
4518;DHT22;2271;49.464;11.070;2023-08-21T11:33:21;33.70;99.90
4518;DHT22;2271;49.464;11.070;2023-08-21T11:35:48;33.70;99.90
4518;DHT22;2271;49.464;11.070;2023-08-21T11:38:18;33.90;99.90
4518;DHT22;2271;49.464;11.070;2023-08-21T11:40:55;34.00;99.90
4518;DHT22;2271;49.464;11.070;2023-08-21T11:43:22;34.10;99.90
4518;DHT22;2271;49.464;11.070;2023-08-21T11:45:48;34.20;99.90
4518;DHT22;2271;49.464;11.070;2023-08-21T11:48:14;34.30;99.90
4518;DHT22;2271;49.464;11.070;2023-08-21T11:50:40;34.40;99.90
4518;DHT22;2271;49.464;11.070;2023-08-21T11:53:05;34.40;99.90
4518;DHT22;2271;49.464;11.070;2023-08-21T11:55:31;34.50;99.90
4518;DHT22;2271;49.464;11.070;2023-08-21T11:57:57;34.50;99.90
4518;DHT22;2271;49.464;11.070;2023-08-21T12:00:29;34.50;99.90
4518;DHT22;2271;49.464;11.070;2023-08-21T12:05:26;34.40;99.90
4518;DHT22;2271;49.464;11.070;2023-08-21T12:07:52;34.30;99.90
4518;DHT22;2271;49.464;11.070;2023-08-21T12:10:25;34.40;99.90
4518;DHT22;2271;49.464;11.070;2023-08-21T12:12:52;34.40;99.90
4518;DHT22;2271;49.464;11.070;2023-08-21T12:15:19;34.50;99.90
4518;DHT22;2271;49.464;11.070;2023-08-21T12:17:45;34.50;99.90
4518;DHT22;2271;49.464;11.070;2023-08-21T12:20:11;34.50;99.90
4518;DHT22;2271;49.464;11.070;2023-08-21T12:22:40;34.40;99.90
4518;DHT22;2271;49.464;11.070;2023-08-21T12:25:08;34.60;99.90
4518;DHT22;2271;49.464;11.070;2023-08-21T12:27:34;34.60;99.90
4518;DHT22;2271;49.464;11.070;2023-08-21T12:29:59;34.60;99.90
4518;DHT22;2271;49.464;11.070;2023-08-21T12:32:25;34.50;99.90
4518;DHT22;2271;49.464;11.070;2023-08-21T12:34:51;34.50;99.90
4518;DHT22;2271;49.464;11.070;2023-08-21T12:37:17;34.40;99.90
4518;DHT22;2271;49.464;11.070;2023-08-21T12:39:43;34.40;99.90
4518;DHT22;2271;49.464;11.070;2023-08-21T12:42:09;34.30;99.90
4518;DHT22;2271;49.464;11.070;2023-08-21T12:44:34;34.30;99.90
4518;DHT22;2271;49.464;11.070;2023-08-21T12:47:00;34.20;99.90
4518;DHT22;2271;49.464;11.070;2023-08-21T12:49:26;34.20;99.90
4518;DHT22;2271;49.464;11.070;2023-08-21T12:51:52;34.40;99.90
4518;DHT22;2271;49.464;11.070;2023-08-21T12:54:18;34.40;99.90
4518;DHT22;2271;49.464;11.070;2023-08-21T12:56:43;34.40;99.90
4518;DHT22;2271;49.464;11.070;2023-08-21T12:59:09;34.40;99.90
4518;DHT22;2271;49.464;11.070;2023-08-21T13:01:35;34.30;99.90
4518;DHT22;2271;49.464;11.070;2023-08-21T13:04:03;34.00;99.90
4518;DHT22;2271;49.464;11.070;2023-08-21T13:06:28;33.60;99.90
4518;DHT22;2271;49.464;11.070;2023-08-21T13:08:54;33.30;99.90
4518;DHT22;2271;49.464;11.070;2023-08-21T13:11:19;33.10;99.90
4518;DHT22;2271;49.464;11.070;2023-08-21T13:13:45;33.20;99.90
4518;DHT22;2271;49.464;11.070;2023-08-21T13:16:11;33.50;99.90
4518;DHT22;2271;49.464;11.070;2023-08-21T13:18:36;33.70;99.90
4518;DHT22;2271;49.464;11.070;2023-08-21T13:21:02;33.80;99.90
4518;DHT22;2271;49.464;11.070;2023-08-21T13:23:28;33.80;99.90
4518;DHT22;2271;49.464;11.070;2023-08-21T13:25:54;33.60;99.90
4518;DHT22;2271;49.464;11.070;2023-08-21T13:28:20;33.50;99.90
4518;DHT22;2271;49.464;11.070;2023-08-21T13:30:46;33.40;99.90
4518;DHT22;2271;49.464;11.070;2023-08-21T13:33:13;33.60;99.90
4518;DHT22;2271;49.464;11.070;2023-08-21T13:35:39;33.70;99.90
4518;DHT22;2271;49.464;11.070;2023-08-21T13:38:04;33.70;99.90
4518;DHT22;2271;49.464;11.070;2023-08-21T13:40:31;33.50;99.90
4518;DHT22;2271;49.464;11.070;2023-08-21T13:42:57;33.30;99.90
4518;DHT22;2271;49.464;11.070;2023-08-21T13:45:23;33.00;99.90
4518;DHT22;2271;49.464;11.070;2023-08-21T13:47:49;32.90;99.90
4518;DHT22;2271;49.464;11.070;2023-08-21T13:50:16;33.00;99.90
4518;DHT22;2271;49.464;11.070;2023-08-21T13:52:43;33.10;99.90
4518;DHT22;2271;49.464;11.070;2023-08-21T13:55:09;33.10;99.90
4518;DHT22;2271;49.464;11.070;2023-08-21T13:57:36;33.10;99.90
4518;DHT22;2271;49.464;11.070;2023-08-21T14:00:04;33.00;99.90
4518;DHT22;2271;49.464;11.070;2023-08-21T14:02:33;32.90;99.90
4518;DHT22;2271;49.464;11.070;2023-08-21T14:05:00;33.10;99.90
4518;DHT22;2271;49.464;11.070;2023-08-21T14:07:26;33.10;99.90
4518;DHT22;2271;49.464;11.070;2023-08-21T14:09:52;33.30;99.90
4518;DHT22;2271;49.464;11.070;2023-08-21T14:12:18;33.40;99.90
4518;DHT22;2271;49.464;11.070;2023-08-21T14:14:44;33.40;99.90
4518;DHT22;2271;49.464;11.070;2023-08-21T14:17:09;33.40;99.90
4518;DHT22;2271;49.464;11.070;2023-08-21T14:19:38;33.40;99.90
4518;DHT22;2271;49.464;11.070;2023-08-21T14:22:04;33.40;99.90
4518;DHT22;2271;49.464;11.070;2023-08-21T14:24:30;33.40;99.90
4518;DHT22;2271;49.464;11.070;2023-08-21T14:26:56;33.30;99.90
4518;DHT22;2271;49.464;11.070;2023-08-21T14:29:22;33.00;99.90
4518;DHT22;2271;49.464;11.070;2023-08-21T14:31:47;33.00;99.90
4518;DHT22;2271;49.464;11.070;2023-08-21T14:34:14;33.10;99.90
4518;DHT22;2271;49.464;11.070;2023-08-21T14:36:41;33.00;99.90
4518;DHT22;2271;49.464;11.070;2023-08-21T14:39:08;32.90;99.90
4518;DHT22;2271;49.464;11.070;2023-08-21T14:41:37;33.00;99.90
4518;DHT22;2271;49.464;11.070;2023-08-21T14:44:03;32.90;99.90
4518;DHT22;2271;49.464;11.070;2023-08-21T14:46:29;32.80;99.90
4518;DHT22;2271;49.464;11.070;2023-08-21T14:48:55;32.60;99.90
4518;DHT22;2271;49.464;11.070;2023-08-21T14:51:21;32.40;99.90
4518;DHT22;2271;49.464;11.070;2023-08-21T14:53:46;32.40;99.90
4518;DHT22;2271;49.464;11.070;2023-08-21T14:56:12;32.50;99.90
4518;DHT22;2271;49.464;11.070;2023-08-21T14:58:38;32.50;99.90
4518;DHT22;2271;49.464;11.070;2023-08-21T15:01:04;32.30;99.90
4518;DHT22;2271;49.464;11.070;2023-08-21T15:03:30;32.20;99.90
4518;DHT22;2271;49.464;11.070;2023-08-21T15:05:55;32.10;99.90
4518;DHT22;2271;49.464;11.070;2023-08-21T15:08:21;32.00;99.90
4518;DHT22;2271;49.464;11.070;2023-08-21T15:10:47;32.00;99.90
4518;DHT22;2271;49.464;11.070;2023-08-21T15:13:12;31.90;99.90
4518;DHT22;2271;49.464;11.070;2023-08-21T15:15:38;31.90;99.90
4518;DHT22;2271;49.464;11.070;2023-08-21T15:18:04;31.90;99.90
4518;DHT22;2271;49.464;11.070;2023-08-21T15:20:29;31.80;99.90
4518;DHT22;2271;49.464;11.070;2023-08-21T15:22:55;31.80;99.90
4518;DHT22;2271;49.464;11.070;2023-08-21T15:25:21;31.80;99.90
4518;DHT22;2271;49.464;11.070;2023-08-21T15:27:47;31.80;99.90
4518;DHT22;2271;49.464;11.070;2023-08-21T15:30:13;31.90;99.90
4518;DHT22;2271;49.464;11.070;2023-08-21T15:32:38;31.90;99.90
4518;DHT22;2271;49.464;11.070;2023-08-21T15:35:04;31.90;99.90
4518;DHT22;2271;49.464;11.070;2023-08-21T15:37:31;31.90;99.90
4518;DHT22;2271;49.464;11.070;2023-08-21T15:39:57;31.90;99.90
4518;DHT22;2271;49.464;11.070;2023-08-21T15:42:23;31.90;99.90
4518;DHT22;2271;49.464;11.070;2023-08-21T15:44:49;31.80;99.90
4518;DHT22;2271;49.464;11.070;2023-08-21T15:47:14;31.80;99.90
4518;DHT22;2271;49.464;11.070;2023-08-21T15:49:40;31.80;99.90
4518;DHT22;2271;49.464;11.070;2023-08-21T15:52:05;31.80;99.90
4518;DHT22;2271;49.464;11.070;2023-08-21T15:54:32;31.80;99.90